TimeCST,TemperatureF,Dew PointF,Humidity,Sea Level PressureIn,VisibilityMPH,Wind Direction,Wind SpeedMPH,Gust SpeedMPH,PrecipitationIn,Events,Conditions,WindDirDegrees,DateUTC
12:24 AM,39.2,37.4,93,30.10,8.0,Calm,Calm,-,N/A,,Overcast,0,2011-11-22 06:24:00
12:53 AM,39.9,37.9,93,30.10,5.0,NNW,4.6,-,0.00,Rain,Light Rain,340,2011-11-22 06:53:00
1:34 AM,39.2,39.2,100,30.05,2.5,NNW,4.6,-,0.00,,Overcast,340,2011-11-22 07:34:00
1:53 AM,39.0,39.0,100,30.06,2.5,North,4.6,-,0.00,,Overcast,360,2011-11-22 07:53:00
2:02 AM,39.2,39.2,100,30.04,3.0,North,3.5,-,N/A,,Overcast,360,2011-11-22 08:02:00
2:41 AM,39.2,39.2,100,30.05,2.5,NNW,3.5,-,0.00,Rain,Light Rain,340,2011-11-22 08:41:00
2:53 AM,39.0,39.0,100,30.07,2.5,NNW,3.5,-,0.01,Rain,Light Rain,330,2011-11-22 08:53:00
3:53 AM,37.9,37.9,100,30.05,2.5,NNW,3.5,-,0.03,Rain,Light Rain,340,2011-11-22 09:53:00
4:53 AM,37.9,37.9,100,30.06,2.5,NNW,4.6,-,0.03,Rain,Light Rain,340,2011-11-22 10:53:00
5:37 AM,37.4,37.4,100,30.03,3.0,North,4.6,-,0.02,Rain,Light Rain,350,2011-11-22 11:37:00
5:53 AM,37.9,37.9,100,30.04,3.0,North,4.6,-,0.02,Rain,Light Rain,350,2011-11-22 11:53:00
6:53 AM,39.0,39.0,100,30.05,4.0,NNW,5.8,-,0.01,Rain,Light Rain,330,2011-11-22 12:53:00
7:53 AM,39.0,39.0,100,30.05,2.5,NNW,5.8,-,0.00,,Overcast,330,2011-11-22 13:53:00
8:07 AM,39.2,39.2,100,30.04,3.0,NNW,8.1,-,N/A,,Overcast,340,2011-11-22 14:07:00
8:53 AM,39.9,39.0,97,30.06,4.0,NNW,9.2,-,N/A,,Overcast,330,2011-11-22 14:53:00
9:34 AM,39.2,39.2,100,30.05,2.5,NNW,8.1,-,N/A,,Overcast,330,2011-11-22 15:34:00
9:53 AM,39.2,39.2,100,30.06,2.0,NNW,9.2,-,N/A,,Overcast,330,2011-11-22 15:53:00
10:08 AM,39.2,39.2,100,30.06,1.5,NW,8.1,-,N/A,,Overcast,320,2011-11-22 16:08:00
10:39 AM,41.0,39.2,93,30.04,2.0,NNW,8.1,-,N/A,,Overcast,340,2011-11-22 16:39:00
10:53 AM,41.0,41.0,100,30.06,2.5,North,8.1,-,N/A,,Overcast,350,2011-11-22 16:53:00
11:08 AM,42.8,41.0,93,30.04,3.0,NW,6.9,-,N/A,,Overcast,320,2011-11-22 17:08:00
11:53 AM,42.1,41.0,96,30.05,4.0,WNW,6.9,-,N/A,,Overcast,300,2011-11-22 17:53:00
12:53 PM,42.1,39.9,92,30.04,4.0,WNW,5.8,-,N/A,,Overcast,300,2011-11-22 18:53:00
1:45 PM,42.8,39.2,87,30.04,2.5,NW,6.9,-,N/A,,Overcast,310,2011-11-22 19:45:00
1:53 PM,42.1,41.0,96,30.06,3.0,WNW,8.1,-,N/A,,Overcast,300,2011-11-22 19:53:00
2:53 PM,42.1,39.9,92,30.05,3.0,NW,5.8,-,N/A,,Overcast,320,2011-11-22 20:53:00
3:53 PM,42.1,39.0,89,30.07,6.0,West,9.2,-,N/A,,Overcast,280,2011-11-22 21:53:00
4:53 PM,41.0,37.4,87,30.07,6.0,WNW,8.1,-,N/A,,Overcast,290,2011-11-22 22:53:00
5:53 PM,41.0,37.9,89,30.09,7.0,WNW,4.6,-,N/A,,Overcast,290,2011-11-22 23:53:00
6:53 PM,41.0,37.4,87,30.10,8.0,West,4.6,-,N/A,,Overcast,270,2011-11-23 00:53:00
7:53 PM,39.9,37.9,93,30.12,9.0,Calm,Calm,-,N/A,,Overcast,0,2011-11-23 01:53:00
8:53 PM,39.9,37.9,93,30.14,10.0,WSW,3.5,-,N/A,,Overcast,250,2011-11-23 02:53:00
9:08 PM,39.2,37.4,93,30.14,10.0,WSW,3.5,-,N/A,,Overcast,240,2011-11-23 03:08:00
9:53 PM,39.0,37.0,93,30.17,10.0,WSW,3.5,-,N/A,,Overcast,240,2011-11-23 03:53:00
10:53 PM,37.0,36.0,96,30.18,10.0,Calm,Calm,-,N/A,,Mostly Cloudy,0,2011-11-23 04:53:00
11:53 PM,35.1,35.1,100,30.19,8.0,SSW,5.8,-,N/A,,Overcast,200,2011-11-23 05:53:00